Time;durP1;ratioP1;P1;durP2;ratioP2;P2;SDS_P1;SDS_P2;PMS_P1;PMS_P2;Temp;Humidity;BMP_temperature;BMP_pressure;BME280_temperature;BME280_humidity;BME280_pressure;Samples;Min_cycle;Max_cycle;Signal;HPM_P1;HPM_P2
2022/09/04 00:02:14;;;;;;;6.65;2.33;;;;;;;15.24;39.85;101287.00;5030178;28;20068;-68
2022/09/04 00:05:06;;;;;;;7.13;1.80;;;;;;;15.28;39.90;101287.50;5030347;28;20442;-67
2022/09/04 00:07:40;;;;;;;5.47;1.88;;;;;;;15.37;39.45;101287.28;5030971;28;20049;-67
2022/09/04 00:10:15;;;;;;;4.75;1.55;;;;;;;15.27;39.70;101292.06;5030107;28;20045;-66
2022/09/04 00:13:00;;;;;;;7.18;1.83;;;;;;;15.10;40.16;101285.91;5030456;28;20108;-66
2022/09/04 00:15:35;;;;;;;6.10;1.42;;;;;;;15.11;40.39;101279.47;5031210;28;20076;-66
2022/09/04 00:18:14;;;;;;;6.63;1.95;;;;;;;15.07;40.51;101278.16;5030824;28;20077;-67
2022/09/04 00:20:59;;;;;;;6.05;1.90;;;;;;;15.19;40.46;101287.56;5030204;28;20481;-67
2022/09/04 00:23:54;;;;;;;7.00;1.90;;;;;;;14.89;40.88;101283.81;5030660;28;20500;-66
2022/09/04 00:26:48;;;;;;;5.95;1.50;;;;;;;14.89;40.85;101288.38;5029898;28;20072;-68
2022/09/04 00:29:27;;;;;;;4.47;1.92;;;;;;;15.01;40.99;101292.34;5029916;28;20072;-68
2022/09/04 00:32:09;;;;;;;3.88;1.55;;;;;;;15.09;40.63;101280.69;5036575;28;20076;-68
2022/09/04 00:34:46;;;;;;;7.40;2.00;;;;;;;14.98;41.02;101290.88;5031049;28;20124;-68
2022/09/04 00:37:20;;;;;;;10.80;1.95;;;;;;;14.90;40.98;101290.03;5030820;28;20091;-67
2022/09/04 00:40:00;;;;;;;5.55;1.50;;;;;;;15.11;40.89;101305.66;5030692;28;20133;-68
2022/09/04 00:43:12;;;;;;;8.02;1.63;;;;;;;14.89;41.24;101294.59;5030967;28;20041;-68
2022/09/04 00:45:59;;;;;;;8.50;1.77;;;;;;;14.68;41.49;101299.72;5029331;28;20052;-67
2022/09/04 00:49:11;;;;;;;5.65;1.63;;;;;;;14.64;41.83;101299.22;5029894;28;20045;-68
2022/09/04 00:51:58;;;;;;;7.18;2.00;;;;;;;14.81;41.40;101313.56;4968556;28;20472;-67
2022/09/04 00:54:25;;;;;;;4.07;1.77;;;;;;;14.64;41.74;101309.19;4971050;28;25427;-68
2022/09/04 00:57:19;;;;;;;6.57;1.80;;;;;;;14.81;42.00;101307.28;4972869;28;20133;-67
2022/09/04 01:00:00;;;;;;;4.22;1.50;;;;;;;14.62;42.07;101306.63;4972393;28;20459;-67
2022/09/04 01:02:48;;;;;;;6.25;1.90;;;;;;;14.76;41.67;101305.94;4972979;28;20161;-68
2022/09/04 01:09:11;;;;;;;9.77;1.80;;;;;;;14.74;41.84;101307.16;4973379;28;20057;-67
2022/09/04 01:11:46;;;;;;;6.78;1.70;;;;;;;14.81;41.45;101316.25;4972929;28;20102;-68
2022/09/04 01:14:33;;;;;;;5.72;1.63;;;;;;;14.60;42.12;101319.50;4973470;28;20129;-67
2022/09/04 01:17:29;;;;;;;7.57;1.98;;;;;;;14.79;41.92;101322.84;4973024;28;20096;-67
2022/09/04 01:20:18;;;;;;;6.25;1.90;;;;;;;14.61;42.21;101320.31;4972766;28;20112;-68
2022/09/04 01:23:18;;;;;;;4.95;1.88;;;;;;;14.59;42.31;101323.19;5010407;28;20125;-68
2022/09/04 01:26:31;;;;;;;5.28;1.60;;;;;;;14.54;42.30;101322.88;5033632;28;20046;-68
2022/09/04 01:29:12;;;;;;;4.35;1.52;;;;;;;14.54;42.51;101321.00;4972151;28;20125;-68
2022/09/04 01:31:56;;;;;;;4.85;1.70;;;;;;;14.45;42.66;101322.03;4972110;28;20061;-67
2022/09/04 01:34:31;;;;;;;8.45;1.63;;;;;;;14.44;42.78;101320.34;4972671;28;20051;-68
2022/09/04 01:37:23;;;;;;;11.02;1.77;;;;;;;14.44;42.70;101324.91;4972383;28;20105;-68
2022/09/04 01:40:08;;;;;;;3.85;1.48;;;;;;;14.44;42.60;101328.44;4971975;28;20583;-67
2022/09/04 01:42:46;;;;;;;4.20;1.60;;;;;;;14.36;42.76;101322.19;4972667;28;20130;-67
2022/09/04 01:45:24;;;;;;;5.57;1.75;;;;;;;14.14;43.33;101323.75;4972385;28;20067;-68
2022/09/04 01:47:55;;;;;;;3.00;1.60;;;;;;;14.40;42.72;101323.56;4972407;28;20047;-68
2022/09/04 01:50:26;;;;;;;6.85;1.60;;;;;;;14.52;42.41;101324.88;4972536;28;20455;-68
2022/09/04 01:53:23;;;;;;;4.45;1.88;;;;;;;14.24;42.88;101319.84;4972948;28;20057;-68
2022/09/04 01:55:59;;;;;;;6.90;1.70;;;;;;;14.28;43.25;101329.28;4971123;28;20713;-67
2022/09/04 01:58:26;;;;;;;7.10;1.60;;;;;;;14.14;43.40;101332.69;4972712;28;20050;-67
2022/09/04 02:01:00;;;;;;;5.90;1.77;;;;;;;14.08;43.28;101327.97;4972445;28;20514;-67
2022/09/04 02:04:19;;;;;;;3.78;1.83;;;;;;;14.18;43.44;101320.53;5018718;28;20103;-67
2022/09/04 02:07:23;;;;;;;3.33;1.38;;;;;;;13.95;43.61;101317.69;4990378;28;20121;-67
2022/09/04 02:10:05;;;;;;;2.95;1.20;;;;;;;14.16;43.39;101321.72;4991448;28;20070;-67
2022/09/04 02:12:49;;;;;;;4.97;1.30;;;;;;;14.10;43.51;101317.84;4975385;28;20048;-67
2022/09/04 02:15:36;;;;;;;4.43;1.17;;;;;;;14.16;43.35;101321.72;4991189;28;20070;-67
2022/09/04 02:18:18;;;;;;;3.78;1.60;;;;;;;13.97;43.58;101318.34;4991420;28;20509;-67
2022/09/04 02:20:54;;;;;;;4.88;1.10;;;;;;;13.90;44.01;101321.88;4987874;28;20129;-68
2022/09/04 02:23:29;;;;;;;4.97;1.23;;;;;;;14.02;43.69;101315.16;4990743;28;20054;-68
2022/09/04 02:26:02;;;;;;;3.70;1.30;;;;;;;14.00;43.60;101330.66;4991052;28;20137;-68
2022/09/04 02:29:05;;;;;;;8.07;1.75;;;;;;;13.79;43.96;101323.91;4990693;28;20142;-68
2022/09/04 02:31:50;;;;;;;4.60;1.58;;;;;;;13.69;44.60;101325.88;4991084;28;20117;-68
2022/09/04 02:34:44;;;;;;;6.30;1.27;;;;;;;13.75;44.27;101327.06;4990559;28;20050;-66
2022/09/04 02:37:26;;;;;;;2.70;1.25;;;;;;;13.79;44.15;101321.19;5009067;28;20049;-67
2022/09/04 02:40:04;;;;;;;5.22;1.73;;;;;;;13.88;43.71;101324.75;5031958;28;20116;-67
2022/09/04 02:42:57;;;;;;;2.88;1.25;;;;;;;13.80;44.03;101328.31;5033150;28;20080;-68
2022/09/04 02:45:41;;;;;;;2.88;1.25;;;;;;;13.91;43.69;101321.72;5024133;28;20056;-68
2022/09/04 02:48:43;;;;;;;9.48;1.85;;;;;;;13.88;43.95;101329.31;5032091;28;20049;-68
2022/09/04 02:51:19;;;;;;;7.22;1.80;;;;;;;13.72;44.28;101333.63;5004745;28;20055;-68
2022/09/04 02:53:54;;;;;;;2.63;1.48;;;;;;;13.71;44.05;101340.03;5032512;28;20049;-68
2022/09/04 02:56:51;;;;;;;2.88;1.40;;;;;;;13.55;44.64;101334.59;5031761;28;20087;-67
2022/09/04 02:59:24;;;;;;;7.35;1.63;;;;;;;13.70;44.36;101345.56;5031730;28;20057;-68
2022/09/04 03:02:02;;;;;;;3.33;1.40;;;;;;;13.56;44.53;101331.75;5032546;28;20049;-68
2022/09/04 03:04:38;;;;;;;3.80;1.83;;;;;;;13.57;44.47;101338.00;5032001;28;20049;-67
2022/09/04 03:07:15;;;;;;;5.57;1.30;;;;;;;13.56;44.68;101325.50;5032502;28;20120;-67
2022/09/04 03:09:54;;;;;;;4.65;1.95;;;;;;;13.54;44.45;101333.75;5030568;28;20055;-68
2022/09/04 03:12:26;;;;;;;4.30;1.38;;;;;;;13.44;44.51;101326.84;5031442;28;20137;-68
2022/09/04 03:15:28;;;;;;;2.38;1.23;;;;;;;13.57;44.37;101327.22;5014440;28;20153;-67
2022/09/04 03:18:03;;;;;;;7.22;1.70;;;;;;;13.56;44.38;101336.28;5029123;28;20042;-68
2022/09/04 03:20:43;;;;;;;3.42;1.65;;;;;;;13.64;44.25;101327.41;5031292;28;20045;-68
2022/09/04 03:23:24;;;;;;;3.33;1.30;;;;;;;13.46;44.72;101327.53;5030910;28;20551;-67
2022/09/04 03:26:08;;;;;;;2.58;1.40;;;;;;;13.59;44.18;101335.97;5027306;28;20055;-68
2022/09/04 03:28:50;;;;;;;5.95;1.48;;;;;;;13.50;44.35;101339.66;5032394;28;20499;-67
2022/09/04 03:31:27;;;;;;;4.70;1.50;;;;;;;13.34;44.67;101343.13;5031415;28;20544;-68
2022/09/04 03:34:05;;;;;;;8.90;1.88;;;;;;;13.57;44.59;101341.53;5031040;28;20097;-68
2022/09/04 03:36:39;;;;;;;9.65;1.70;;;;;;;13.45;44.44;101342.81;5031132;28;20073;-67
2022/09/04 03:39:39;;;;;;;3.80;1.25;;;;;;;13.52;44.39;101349.25;5056803;27;20407;-67
2022/09/04 03:42:30;;;;;;;2.38;1.05;;;;;;;13.38;44.56;101344.50;5047338;28;20049;-68
2022/09/04 03:45:15;;;;;;;6.28;1.50;;;;;;;13.34;44.94;101343.13;5048191;28;20137;-67
2022/09/04 03:48:19;;;;;;;3.28;1.40;;;;;;;13.21;45.03;101345.44;5054795;28;20132;-67
2022/09/04 03:51:13;;;;;;;5.20;1.58;;;;;;;13.40;44.59;101347.03;5047623;28;20477;-68
2022/09/04 03:53:44;;;;;;;6.07;1.73;;;;;;;13.36;44.88;101351.91;5047529;28;20160;-68
2022/09/04 03:56:30;;;;;;;2.72;1.50;;;;;;;13.27;45.08;101339.41;5048450;28;20049;-68
2022/09/04 03:59:03;;;;;;;3.20;1.77;;;;;;;13.33;44.75;101355.78;5067247;28;20127;-68
2022/09/04 04:01:39;;;;;;;3.42;1.40;;;;;;;13.39;44.64;101351.59;5049264;28;20128;-68
2022/09/04 04:04:15;;;;;;;3.70;1.25;;;;;;;13.27;44.96;101366.34;5039321;28;20083;-68
2022/09/04 04:06:57;;;;;;;2.13;1.23;;;;;;;13.21;45.10;101357.06;5087799;28;20131;-68
2022/09/04 04:09:38;;;;;;;8.18;1.33;;;;;;;13.32;44.72;101361.34;5087765;28;20044;-68
2022/09/04 04:12:24;;;;;;;2.47;1.50;;;;;;;13.17;45.32;101365.63;5088300;28;20121;-68
2022/09/04 04:15:04;;;;;;;2.17;1.00;;;;;;;12.98;45.25;101366.72;5082735;28;20123;-66
2022/09/04 04:18:21;;;;;;;5.72;1.48;;;;;;;13.14;44.98;101368.66;5086491;28;20040;-66
2022/09/04 04:20:57;;;;;;;2.70;1.30;;;;;;;13.19;45.01;101377.94;5078194;28;20048;-68
2022/09/04 04:24:03;;;;;;;5.32;1.45;;;;;;;13.04;45.26;101374.16;5087286;28;20123;-68
2022/09/04 04:27:02;;;;;;;4.03;1.55;;;;;;;13.20;44.85;101366.16;5086677;28;20124;-68
2022/09/04 04:30:01;;;;;;;7.70;1.38;;;;;;;13.08;45.08;101375.53;5086343;28;20056;-68
2022/09/04 04:33:17;;;;;;;4.43;1.27;;;;;;;13.08;45.36;101378.22;5084778;28;20571;-67
2022/09/04 04:35:59;;;;;;;4.30;1.15;;;;;;;13.13;45.06;101375.06;5071678;28;20044;-67
2022/09/04 04:39:01;;;;;;;5.18;1.20;;;;;;;13.02;45.29;101382.41;5086423;28;20139;-68
2022/09/04 04:41:29;;;;;;;5.25;1.15;;;;;;;13.04;45.50;101382.22;5087236;28;20044;-66
2022/09/04 04:45:48;;;;;;;4.50;1.15;;;;;;;12.89;45.69;101387.38;5086766;28;20052;-68
2022/09/04 04:47:35;;;;;;;3.78;1.40;;;;;;;12.94;45.50;101387.75;5084555;28;20075;-67
2022/09/04 04:50:31;;;;;;;5.90;1.50;;;;;;;12.90;45.53;101393.59;5077111;28;20132;-68
2022/09/04 04:53:13;;;;;;;2.28;1.15;;;;;;;12.82;45.66;101386.31;5072451;28;20151;-67
2022/09/04 04:55:48;;;;;;;5.60;1.35;;;;;;;12.77;45.95;101394.03;5072781;28;20040;-67
2022/09/04 04:58:24;;;;;;;7.88;1.35;;;;;;;12.72;46.18;101391.78;5072886;28;20455;-67
2022/09/04 05:01:08;;;;;;;3.28;1.50;;;;;;;12.77;45.71;101386.81;5072629;28;20063;-67
2022/09/04 05:03:56;;;;;;;3.10;1.42;;;;;;;12.77;46.10;101400.28;5073438;28;20040;-67
2022/09/04 05:06:47;;;;;;;3.88;1.42;;;;;;;12.58;46.29;101406.66;5072667;28;20045;-67
2022/09/04 05:09:30;;;;;;;2.47;1.40;;;;;;;12.68;46.02;101403.88;5072129;28;20123;-67
2022/09/04 05:12:33;;;;;;;4.75;1.38;;;;;;;12.69;46.28;101424.38;5073275;28;20072;-67
2022/09/04 05:15:44;;;;;;;2.45;1.30;;;;;;;12.76;46.02;101430.03;5072777;28;20075;-67
2022/09/04 05:18:44;;;;;;;6.22;1.50;;;;;;;12.58;46.38;101435.41;5067803;28;20044;-67
2022/09/04 05:21:36;;;;;;;7.13;1.65;;;;;;;12.79;46.10;101441.31;5072655;28;20131;-67
2022/09/04 05:24:43;;;;;;;3.40;1.30;;;;;;;12.78;45.97;101439.66;5072872;28;20071;-67
2022/09/04 05:27:38;;;;;;;3.20;1.27;;;;;;;12.74;46.18;101446.34;5063750;28;20048;-67
2022/09/04 05:30:14;;;;;;;7.43;1.60;;;;;;;12.82;46.03;101456.34;5072109;28;20040;-67
2022/09/04 05:33:14;;;;;;;4.75;1.45;;;;;;;12.82;46.02;101459.03;5072152;28;20106;-67
2022/09/04 05:36:11;;;;;;;4.28;1.40;;;;;;;12.76;46.22;101459.66;5072624;28;20045;-67
2022/09/04 05:38:42;;;;;;;4.88;1.30;;;;;;;12.90;45.93;101460.94;5072698;28;20045;-67
2022/09/04 05:41:32;;;;;;;;;;;;;;;12.69;46.35;101467.47;5073266;28;20050;-67
2022/09/04 05:44:11;;;;;;;4.25;1.60;;;;;;;12.80;45.93;101472.66;5072418;28;20006;-67
2022/09/04 05:46:46;;;;;;;2.85;1.60;;;;;;;13.01;45.78;101482.25;5072481;28;20131;-67
2022/09/04 05:49:24;;;;;;;1.95;1.17;;;;;;;13.01;45.64;101483.06;5073140;28;20503;-67
2022/09/04 05:52:42;;;;;;;4.80;1.35;;;;;;;13.02;45.61;101483.91;5072474;28;20131;-67
2022/09/04 05:55:31;;;;;;;4.65;1.58;;;;;;;13.28;44.91;101481.22;5050008;28;20124;-67
2022/09/04 05:58:28;;;;;;;3.63;1.63;;;;;;;13.10;45.29;101489.34;5047446;28;20536;-67
2022/09/04 06:01:01;;;;;;;4.80;1.35;;;;;;;13.40;44.59;101490.72;5070678;28;20076;-67
2022/09/04 06:03:30;;;;;;;6.75;1.45;;;;;;;13.46;46.61;101494.63;5071151;28;20075;-68
2022/09/04 06:06:10;;;;;;;8.27;1.80;;;;;;;13.22;45.39;101500.72;5071768;28;20461;-67
2022/09/04 06:09:01;;;;;;;3.00;1.55;;;;;;;13.54;45.35;101500.06;5071247;28;20143;-67
2022/09/04 06:11:50;;;;;;;6.03;1.30;;;;;;;13.63;44.49;101503.63;5072001;28;20403;-67
2022/09/04 06:14:54;;;;;;;4.35;1.38;;;;;;;13.70;44.68;101516.31;5071339;28;20416;-67
2022/09/04 06:17:27;;;;;;;4.70;1.65;;;;;;;13.68;44.34;101507.53;5070860;28;20068;-67
2022/09/04 06:20:29;;;;;;;5.20;1.60;;;;;;;14.13;43.42;101514.50;5071928;28;20508;-67
2022/09/04 06:23:17;;;;;;;6.13;1.88;;;;;;;13.78;44.11;101505.59;5071628;28;20546;-67
2022/09/04 06:26:10;;;;;;;4.30;1.40;;;;;;;13.91;44.03;101506.97;5070856;28;20103;-67
2022/09/04 06:29:07;;;;;;;4.38;1.55;;;;;;;13.73;44.31;101507.03;5069937;28;20131;-66
2022/09/04 06:32:18;;;;;;;2.10;1.52;;;;;;;13.90;44.11;101508.00;5071119;28;20068;-68
2022/09/04 06:35:17;;;;;;;2.88;1.20;;;;;;;13.82;44.30;101506.97;5070852;28;20044;-66
2022/09/04 06:38:05;;;;;;;3.20;1.60;;;;;;;14.11;43.79;101505.69;5065158;28;20131;-67
2022/09/04 06:41:07;;;;;;;5.63;1.70;;;;;;;14.12;43.81;101515.50;5071814;28;20463;-67
2022/09/04 06:43:49;;;;;;;4.60;1.50;;;;;;;14.47;43.17;101510.84;5055402;28;20055;-68
2022/09/04 06:46:29;;;;;;;3.00;1.55;;;;;;;14.82;42.49;101519.69;5070645;28;20044;-68
2022/09/04 06:49:07;;;;;;;4.82;1.65;;;;;;;14.62;42.71;101514.56;5064839;28;20127;-69
2022/09/04 06:51:43;;;;;;;4.90;1.67;;;;;;;14.83;42.40;101519.50;5063276;28;20132;-67
2022/09/04 06:54:28;;;;;;;6.15;1.90;;;;;;;14.95;42.10;101522.72;5070303;28;20124;-67
2022/09/04 06:57:06;;;;;;;7.05;2.00;;;;;;;14.90;42.61;101530.47;5071072;28;20040;-67
2022/09/04 06:59:45;;;;;;;7.57;1.77;;;;;;;14.90;42.59;101525.91;5071987;28;20082;-68
2022/09/04 07:02:27;;;;;;;4.88;1.60;;;;;;;15.07;42.23;101525.91;5072318;28;20127;-67
2022/09/04 07:05:08;;;;;;;2.67;1.73;;;;;;;15.17;42.23;101529.28;5070841;28;20044;-67
2022/09/04 07:08:02;;;;;;;3.83;2.30;;;;;;;16.12;40.45;101527.47;5071248;28;20385;-67
2022/09/04 07:10:31;;;;;;;6.03;2.45;;;;;;;16.19;40.47;101533.91;5070435;28;20060;-67
2022/09/04 07:13:22;;;;;;;4.78;2.20;;;;;;;16.23;39.96;101542.50;5066146;28;20132;-67
2022/09/04 07:16:04;;;;;;;7.72;1.90;;;;;;;16.25;40.26;101545.03;5070014;28;20060;-68
2022/09/04 07:18:49;;;;;;;8.20;2.20;;;;;;;15.95;40.90;101544.81;5070726;28;20055;-67
2022/09/04 07:21:51;;;;;;;4.32;2.28;;;;;;;16.03;40.77;101533.13;5070309;28;20140;-67
2022/09/04 07:24:46;;;;;;;4.80;2.13;;;;;;;15.66;41.75;101534.63;5070863;28;20048;-67
2022/09/04 07:27:22;;;;;;;3.63;2.35;;;;;;;15.59;42.07;101526.31;5069715;28;20127;-67
2022/09/04 07:30:04;;;;;;;4.65;2.10;;;;;;;16.39;40.70;101533.41;5069947;28;20040;-68
2022/09/04 07:32:54;;;;;;;4.88;2.17;;;;;;;16.43;40.70;101534.75;5076042;28;20512;-68
2022/09/04 07:35:38;;;;;;;3.67;1.90;;;;;;;16.88;39.88;101533.94;5069287;28;20475;-69
2022/09/04 07:38:20;;;;;;;6.53;2.30;;;;;;;16.80;40.29;101535.88;5070759;28;20108;-68
2022/09/04 07:41:25;;;;;;;6.57;2.00;;;;;;;17.39;39.25;101546.06;5068935;28;20465;-69
2022/09/04 07:44:04;;;;;;;4.10;2.22;;;;;;;17.82;38.29;101531.66;5051444;28;20455;-68
2022/09/04 07:46:49;;;;;;;5.75;2.17;;;;;;;18.31;37.78;101530.19;5070450;28;20064;-68
2022/09/04 07:49:36;;;;;;;5.22;2.40;;;;;;;18.83;36.63;101539.94;5068735;28;20046;-68
2022/09/04 07:52:22;;;;;;;4.65;2.10;;;;;;;18.86;36.46;101544.09;5069307;28;20071;-69
2022/09/04 07:55:27;;;;;;;4.10;2.30;;;;;;;18.45;37.37;101542.06;5070882;28;20540;-69
2022/09/04 07:58:19;;;;;;;4.75;2.17;;;;;;;18.24;37.79;101543.69;5069233;28;20489;-69
2022/09/04 08:01:10;;;;;;;4.68;2.40;;;;;;;18.54;38.35;101552.59;5069957;28;20441;-70
2022/09/04 08:03:55;;;;;;;5.70;2.50;;;;;;;18.75;38.92;101556.34;5070658;28;20052;-71
2022/09/04 08:06:43;;;;;;;6.45;2.15;;;;;;;18.61;39.39;101562.69;5069586;28;20128;-71
2022/09/04 08:09:26;;;;;;;3.65;2.05;;;;;;;18.80;39.08;101556.63;5070168;28;20045;-71
2022/09/04 08:12:01;;;;;;;7.63;2.28;;;;;;;19.34;37.51;101571.53;5069364;28;20403;-71
2022/09/04 08:14:36;;;;;;;4.07;2.35;;;;;;;19.37;38.13;101577.41;5075489;28;20071;-71
2022/09/04 08:17:35;;;;;;;9.63;2.85;;;;;;;19.25;38.13;101573.56;5071100;28;20131;-71
2022/09/04 08:20:33;;;;;;;12.73;2.60;;;;;;;19.73;36.30;101579.19;5069678;28;20131;-71
2022/09/04 08:23:24;;;;;;;4.88;2.20;;;;;;;20.18;35.69;101575.00;5069624;28;20044;-71
2022/09/04 08:26:13;;;;;;;3.10;2.20;;;;;;;19.87;36.98;101571.94;5073596;28;20123;-70
2022/09/04 08:28:40;;;;;;;11.93;2.60;;;;;;;20.54;35.19;101583.97;5072361;28;20075;-71
2022/09/04 08:31:24;;;;;;;;;;;;;;;20.40;35.84;101586.63;5075553;28;20393;-71
2022/09/04 08:34:21;;;;;;;5.80;2.38;;;;;;;20.76;34.28;101585.47;5073644;28;19921;-70
2022/09/04 08:37:12;;;;;;;4.25;2.28;;;;;;;20.38;35.80;101587.84;5072953;28;20432;-71
2022/09/04 08:39:48;;;;;;;7.97;2.33;;;;;;;20.82;34.36;101590.09;5073971;28;20044;-71
2022/09/04 08:42:53;;;;;;;4.15;2.33;;;;;;;21.01;34.40;101583.00;5072750;28;20062;-71
2022/09/04 08:45:31;;;;;;;3.85;2.03;;;;;;;20.61;35.77;101576.63;5066916;28;20127;-71
2022/09/04 08:48:47;;;;;;;8.98;2.17;;;;;;;20.11;36.00;101570.59;5074321;28;20127;-70
2022/09/04 08:51:49;;;;;;;6.57;2.35;;;;;;;20.46;35.94;101574.09;5073912;28;20487;-70
2022/09/04 08:54:47;;;;;;;6.65;2.35;;;;;;;20.25;36.77;101575.03;5073874;28;20068;-71
2022/09/04 08:57:46;;;;;;;5.43;2.30;;;;;;;20.32;36.25;101572.34;5074174;28;20044;-70
2022/09/04 09:00:36;;;;;;;4.15;2.35;;;;;;;20.74;34.62;101571.22;5073520;28;20127;-71
2022/09/04 09:03:12;;;;;;;3.80;2.28;;;;;;;21.38;33.62;101583.44;5073881;28;20044;-70
2022/09/04 09:05:57;;;;;;;3.20;2.40;;;;;;;22.36;32.38;101582.53;5073624;28;20067;-72
2022/09/04 09:09:01;;;;;;;4.43;2.35;;;;;;;22.95;30.96;101574.00;5072705;28;20044;-72
2022/09/04 09:12:01;;;;;;;5.72;2.30;;;;;;;23.04;30.92;101586.34;5072053;28;20047;-71
2022/09/04 09:15:02;;;;;;;4.68;1.90;;;;;;;22.80;31.37;101573.47;5072262;28;20135;-71
2022/09/04 09:17:59;;;;;;;3.63;2.00;;;;;;;22.86;30.97;101580.81;5072350;28;20079;-72
2022/09/04 09:20:27;;;;;;;3.72;1.88;;;;;;;23.13;30.98;101581.47;5052668;28;20128;-72
2022/09/04 09:23:15;;;;;;;8.35;2.03;;;;;;;23.10;30.73;101576.41;5053661;28;20461;-71
2022/09/04 09:25:49;;;;;;;2.63;1.85;;;;;;;22.89;31.80;101574.06;5053309;28;20537;-71
2022/09/04 09:29:11;;;;;;;3.63;2.13;;;;;;;23.36;30.65;101574.53;5068778;28;20045;-70
2022/09/04 09:32:15;;;;;;;2.80;1.65;;;;;;;23.29;30.92;101569.09;5051056;28;20497;-71
2022/09/04 09:35:21;;;;;;;3.53;2.10;;;;;;;24.27;29.12;101571.00;5046420;28;20128;-70
2022/09/04 09:38:14;;;;;;;7.13;2.03;;;;;;;23.73;29.66;101559.81;5043983;28;20045;-71
2022/09/04 09:41:11;;;;;;;4.57;1.75;;;;;;;24.17;29.06;101566.06;5051140;28;20123;-71
2022/09/04 09:44:20;;;;;;;3.17;1.88;;;;;;;24.40;28.97;101570.88;5051442;28;20064;-71
2022/09/04 09:47:16;;;;;;;4.30;1.65;;;;;;;24.88;27.55;101575.41;5062316;28;20064;-71
2022/09/04 09:49:54;;;;;;;3.53;1.77;;;;;;;24.66;27.49;101569.63;5057532;28;20048;-71
2022/09/04 09:52:39;;;;;;;3.10;1.70;;;;;;;24.69;27.54;101573.84;5029390;28;20463;-71
2022/09/04 09:55:15;;;;;;;6.43;1.70;;;;;;;24.74;27.83;101571.22;5057969;28;20131;-71
2022/09/04 09:58:00;;;;;;;2.65;1.60;;;;;;;24.06;28.72;101564.13;5063585;28;20062;-71
2022/09/04 10:00:58;;;;;;;8.88;1.98;;;;;;;23.56;29.29;101560.66;5049574;28;20176;-70
2022/09/04 10:03:37;;;;;;;2.65;1.42;;;;;;;23.37;29.91;101559.78;5023099;28;20061;-70
2022/09/04 10:06:25;;;;;;;2.17;1.40;;;;;;;23.26;29.48;101564.09;5054528;28;20507;-70
2022/09/04 10:09:30;;;;;;;2.22;1.58;;;;;;;24.23;28.18;101558.84;5072201;28;20060;-70
2022/09/04 10:12:20;;;;;;;3.53;1.50;;;;;;;24.30;27.99;101561.47;5070581;28;20124;-72
2022/09/04 10:15:04;;;;;;;3.25;1.77;;;;;;;24.35;27.82;101561.63;5071315;28;20198;-72
2022/09/04 10:18:02;;;;;;;1.58;1.45;;;;;;;23.79;28.65;101552.63;5070320;28;20048;-71
2022/09/04 10:20:28;;;;;;;4.25;1.63;;;;;;;24.08;28.58;101566.63;5067766;28;20040;-71
2022/09/04 10:23:04;;;;;;;4.68;1.92;;;;;;;24.51;27.08;101558.28;5071656;28;20067;-71
2022/09/04 10:25:49;;;;;;;6.00;1.80;;;;;;;24.45;28.04;101564.69;5071788;28;20131;-71
2022/09/04 10:28:40;;;;;;;3.92;1.65;;;;;;;24.49;27.33;101574.13;5070348;28;20132;-72
2022/09/04 10:31:25;;;;;;;11.07;1.85;;;;;;;23.92;28.93;101566.19;5070024;28;20068;-71
2022/09/04 10:34:23;;;;;;;2.75;1.75;;;;;;;23.99;28.04;101568.84;5054041;28;20048;-71
2022/09/04 10:37:18;;;;;;;3.35;1.80;;;;;;;24.64;27.24;101569.03;5071247;28;20123;-69
2022/09/04 10:42:49;;;;;;;3.65;1.60;;;;;;;24.52;27.03;101576.41;5069755;28;20045;-69
2022/09/04 10:45:37;;;;;;;8.40;1.65;;;;;;;24.77;27.06;101580.88;5070033;28;20040;-68
2022/09/04 10:48:13;;;;;;;2.75;1.80;;;;;;;23.77;28.11;101582.16;5064481;28;20132;-69
2022/09/04 10:51:04;;;;;;;4.40;1.88;;;;;;;24.50;27.20;101572.19;5071074;28;20048;-69
2022/09/04 10:54:05;;;;;;;3.87;2.17;;;;;;;24.03;28.08;101581.03;5071520;28;20135;-69
2022/09/04 10:56:46;;;;;;;3.17;1.88;;;;;;;24.40;27.45;101570.88;5071869;28;20040;-69
2022/09/04 10:59:35;;;;;;;5.65;1.90;;;;;;;24.68;26.92;101578.50;5072490;28;20040;-69
2022/09/04 11:02:14;;;;;;;2.70;2.00;;;;;;;24.70;26.94;101572.75;5071568;28;20068;-69
2022/09/04 11:04:51;;;;;;;4.72;1.90;;;;;;;24.61;27.26;101565.91;5071940;28;20040;-69
2022/09/04 11:07:41;;;;;;;5.50;2.40;;;;;;;24.41;27.66;101566.22;5070409;28;20126;-69
2022/09/04 11:10:40;;;;;;;3.15;1.90;;;;;;;25.10;26.85;101569.41;5075729;28;20052;-69
2022/09/04 11:13:22;;;;;;;5.85;1.90;;;;;;;24.97;26.77;101569.59;5071022;28;20127;-69
2022/09/04 11:16:01;;;;;;;4.60;1.83;;;;;;;24.46;27.30;101571.00;5071090;28;20071;-69
2022/09/04 11:18:36;;;;;;;6.63;1.70;;;;;;;24.43;27.24;101583.25;5066144;28;20052;-69
2022/09/04 11:21:19;;;;;;;3.95;1.67;;;;;;;25.01;26.58;101576.31;5071160;28;20150;-69
2022/09/04 11:24:16;;;;;;;4.78;1.80;;;;;;;24.39;27.06;101571.09;5070769;28;20125;-69
2022/09/04 11:27:02;;;;;;;4.10;1.70;;;;;;;24.99;26.38;101564.69;5070995;28;20063;-68
2022/09/04 11:29:53;;;;;;;3.58;1.85;;;;;;;25.06;26.02;101574.56;5069786;28;20500;-70
2022/09/04 11:32:42;;;;;;;4.05;1.77;;;;;;;25.21;26.18;101571.34;5070603;28;20104;-68
2022/09/04 11:35:18;;;;;;;3.85;2.17;;;;;;;25.41;25.41;101576.47;5070040;28;20396;-69
2022/09/04 11:38:42;;;;;;;2.30;1.65;;;;;;;26.42;24.46;101573.47;5070076;28;20453;-69
2022/09/04 11:41:49;;;;;;;5.78;1.83;;;;;;;26.61;23.80;101563.88;5048624;28;20404;-69
2022/09/04 11:44:37;;;;;;;7.00;2.30;;;;;;;27.30;23.44;101557.34;5059100;28;20079;-68
2022/09/04 11:47:18;;;;;;;6.97;3.28;;;;;;;27.50;23.11;101549.44;5067920;28;20068;-69
2022/09/04 11:50:00;;;;;;;4.63;1.77;;;;;;;28.60;21.31;101547.47;5070720;28;20053;-69
2022/09/04 11:53:11;;;;;;;7.28;2.00;;;;;;;26.66;23.54;101553.00;5070558;28;20440;-69
2022/09/04 11:56:02;;;;;;;2.45;1.40;;;;;;;26.86;23.43;101540.66;5049936;28;20132;-68
2022/09/04 11:58:49;;;;;;;6.55;1.80;;;;;;;27.48;22.49;101551.59;5050507;28;20127;-68
2022/09/04 12:01:31;;;;;;;4.50;1.98;;;;;;;28.35;21.93;101550.78;5048606;28;20053;-68
2022/09/04 12:04:21;;;;;;;;;;;;;;;28.37;21.68;101543.06;5054991;28;20132;-70
2022/09/04 12:07:01;;;;;;;6.57;1.77;;;;;;;28.55;21.48;101543.81;5054422;28;19920;-69
2022/09/04 12:09:50;;;;;;;6.68;2.00;;;;;;;27.14;23.32;101539.75;5053861;28;20771;-69
2022/09/04 12:12:26;;;;;;;2.70;1.95;;;;;;;25.28;25.32;101543.75;5053817;28;20136;-69
2022/09/04 12:15:11;;;;;;;3.80;2.03;;;;;;;23.27;28.32;101536.50;5053395;28;20057;-68
2022/09/04 12:17:48;;;;;;;2.85;1.90;;;;;;;23.00;29.12;101532.28;5055325;28;20056;-70
2022/09/04 12:20:22;;;;;;;3.55;2.10;;;;;;;22.65;29.73;101530.03;5048598;28;20049;-69
2022/09/04 12:23:20;;;;;;;2.63;1.92;;;;;;;22.69;29.85;101530.44;5052008;28;20455;-68
2022/09/04 12:26:16;;;;;;;4.53;1.80;;;;;;;22.25;30.34;101532.13;5053791;28;20100;-69
2022/09/04 12:29:18;;;;;;;2.80;1.85;;;;;;;22.62;29.98;101535.94;5053959;28;20519;-68
2022/09/04 12:32:05;;;;;;;11.25;2.10;;;;;;;22.98;29.02;101531.66;5053339;28;20132;-70
2022/09/04 12:34:53;;;;;;;4.55;1.77;;;;;;;22.76;29.03;101532.06;5053256;28;20047;-69
2022/09/04 12:37:34;;;;;;;3.80;1.75;;;;;;;22.57;29.20;101533.03;5052115;28;20072;-69
2022/09/04 12:40:20;;;;;;;;;;;;;;;22.26;29.38;101531.94;5054498;28;20057;-69
2022/09/04 12:42:59;;;;;;;5.68;2.13;;;;;;;24.08;27.17;101536.47;5052229;28;19921;-69
2022/09/04 12:45:53;;;;;;;6.20;1.80;;;;;;;25.38;24.88;101538.50;5043943;28;20569;-69
2022/09/04 12:48:23;;;;;;;3.55;1.77;;;;;;;24.93;25.45;101533.56;5052684;28;20052;-70
2022/09/04 12:51:04;;;;;;;7.38;1.67;;;;;;;26.01;24.22;101528.59;5052974;28;20041;-70
2022/09/04 12:53:46;;;;;;;5.80;2.20;;;;;;;26.21;23.83;101530.97;5060772;28;20459;-69
2022/09/04 12:56:25;;;;;;;8.30;1.80;;;;;;;26.00;24.08;101540.69;5072982;28;20055;-69
2022/09/04 12:59:06;;;;;;;7.22;2.85;;;;;;;26.47;23.51;101529.50;5073705;28;20064;-70
2022/09/04 13:01:55;;;;;;;3.78;1.90;;;;;;;25.76;24.19;101534.41;5078375;28;20047;-69
2022/09/04 13:04:57;;;;;;;3.35;2.20;;;;;;;23.43;27.09;101537.81;5072716;28;20064;-70
2022/09/04 13:07:41;;;;;;;4.18;1.80;;;;;;;22.22;28.65;101535.31;5070087;28;20054;-69